sensor_id;sensor_type;location;lat;lon;timestamp;pressure;altitude;pressure_sealevel;temperature;humidity
18533;BME280;9396;51.510;11.934;2023-02-21T00:02:05;100531.88;;;9.11;100.00
18533;BME280;9396;51.510;11.934;2023-02-21T00:04:49;100536.47;;;9.09;100.00
18533;BME280;9396;51.510;11.934;2023-02-21T00:07:33;100532.97;;;9.08;100.00
18533;BME280;9396;51.510;11.934;2023-02-21T00:10:17;100526.69;;;9.09;100.00
18533;BME280;9396;51.510;11.934;2023-02-21T00:13:01;100535.47;;;9.10;100.00
18533;BME280;9396;51.510;11.934;2023-02-21T00:15:45;100541.50;;;9.12;100.00
18533;BME280;9396;51.510;11.934;2023-02-21T00:18:34;100543.88;;;9.15;100.00
18533;BME280;9396;51.510;11.934;2023-02-21T00:21:18;100536.47;;;9.09;100.00
18533;BME280;9396;51.510;11.934;2023-02-21T00:24:02;100535.78;;;9.07;100.00
18533;BME280;9396;51.510;11.934;2023-02-21T00:26:47;100541.06;;;9.07;100.00
18533;BME280;9396;51.510;11.934;2023-02-21T00:29:31;100537.31;;;9.09;100.00
18533;BME280;9396;51.510;11.934;2023-02-21T00:32:15;100540.38;;;9.05;100.00
18533;BME280;9396;51.510;11.934;2023-02-21T00:35:00;100531.16;;;8.99;100.00
18533;BME280;9396;51.510;11.934;2023-02-21T00:37:48;100531.72;;;9.03;100.00
18533;BME280;9396;51.510;11.934;2023-02-21T00:40:32;100529.50;;;9.08;100.00
18533;BME280;9396;51.510;11.934;2023-02-21T00:43:16;100527.41;;;9.02;100.00
18533;BME280;9396;51.510;11.934;2023-02-21T00:46:00;100522.91;;;9.12;100.00
18533;BME280;9396;51.510;11.934;2023-02-21T00:48:44;100524.06;;;9.09;100.00
18533;BME280;9396;51.510;11.934;2023-02-21T00:51:29;100525.84;;;9.09;100.00
18533;BME280;9396;51.510;11.934;2023-02-21T00:54:13;100525.84;;;9.09;100.00
18533;BME280;9396;51.510;11.934;2023-02-21T00:56:57;100525.56;;;9.12;100.00
18533;BME280;9396;51.510;11.934;2023-02-21T00:59:41;100525.31;;;9.05;100.00
18533;BME280;9396;51.510;11.934;2023-02-21T01:02:25;100531.16;;;9.09;100.00
18533;BME280;9396;51.510;11.934;2023-02-21T01:05:09;100537.88;;;9.03;100.00
18533;BME280;9396;51.510;11.934;2023-02-21T01:07:54;100542.31;;;9.03;100.00
18533;BME280;9396;51.510;11.934;2023-02-21T01:10:38;100545.97;;;8.92;100.00
18533;BME280;9396;51.510;11.934;2023-02-21T01:13:22;100534.81;;;8.98;100.00
18533;BME280;9396;51.510;11.934;2023-02-21T01:16:06;100548.78;;;9.00;100.00
18533;BME280;9396;51.510;11.934;2023-02-21T01:18:51;100540.50;;;8.94;100.00
18533;BME280;9396;51.510;11.934;2023-02-21T01:21:35;100537.03;;;8.93;100.00
18533;BME280;9396;51.510;11.934;2023-02-21T01:24:20;100538.16;;;8.91;100.00
18533;BME280;9396;51.510;11.934;2023-02-21T01:27:05;100530.34;;;8.99;100.00
18533;BME280;9396;51.510;11.934;2023-02-21T01:29:48;100538.84;;;8.93;100.00
18533;BME280;9396;51.510;11.934;2023-02-21T01:32:32;100532.16;;;8.89;100.00
18533;BME280;9396;51.510;11.934;2023-02-21T01:35:16;100532.28;;;8.97;100.00
18533;BME280;9396;51.510;11.934;2023-02-21T01:38:01;100519.72;;;8.99;100.00
18533;BME280;9396;51.510;11.934;2023-02-21T01:40:46;100532.56;;;9.03;100.00
18533;BME280;9396;51.510;11.934;2023-02-21T01:43:30;100527.81;;;9.07;100.00
18533;BME280;9396;51.510;11.934;2023-02-21T01:46:16;100521.09;;;9.03;100.00
18533;BME280;9396;51.510;11.934;2023-02-21T01:49:03;100517.09;;;8.99;100.00
18533;BME280;9396;51.510;11.934;2023-02-21T01:51:48;100520.25;;;9.12;100.00
18533;BME280;9396;51.510;11.934;2023-02-21T01:54:47;100528.91;;;9.14;100.00
18533;BME280;9396;51.510;11.934;2023-02-21T01:57:34;100515.66;;;9.14;100.00
18533;BME280;9396;51.510;11.934;2023-02-21T02:00:19;100520.69;;;9.07;100.00
18533;BME280;9396;51.510;11.934;2023-02-21T02:03:05;100505.88;;;9.05;100.00
18533;BME280;9396;51.510;11.934;2023-02-21T02:05:54;100506.59;;;9.07;100.00
18533;BME280;9396;51.510;11.934;2023-02-21T02:08:38;100501.72;;;9.02;100.00
18533;BME280;9396;51.510;11.934;2023-02-21T02:11:35;100499.88;;;9.03;100.00
18533;BME280;9396;51.510;11.934;2023-02-21T02:14:44;100490.25;;;9.02;100.00
18533;BME280;9396;51.510;11.934;2023-02-21T02:17:19;100494.16;;;8.98;100.00
18533;BME280;9396;51.510;11.934;2023-02-21T02:20:08;100496.41;;;8.93;100.00
18533;BME280;9396;51.510;11.934;2023-02-21T02:23:14;100499.31;;;8.99;100.00
18533;BME280;9396;51.510;11.934;2023-02-21T02:25:59;100495.56;;;9.02;100.00
18533;BME280;9396;51.510;11.934;2023-02-21T02:28:45;100492.75;;;9.03;100.00
18533;BME280;9396;51.510;11.934;2023-02-21T02:31:27;100483.41;;;8.99;100.00
18533;BME280;9396;51.510;11.934;2023-02-21T02:37:08;100480.59;;;9.01;100.00
18533;BME280;9396;51.510;11.934;2023-02-21T02:39:40;100487.59;;;9.02;100.00
18533;BME280;9396;51.510;11.934;2023-02-21T02:42:18;100483.00;;;9.04;100.00
18533;BME280;9396;51.510;11.934;2023-02-21T02:44:55;100472.38;;;9.04;100.00
18533;BME280;9396;51.510;11.934;2023-02-21T02:47:26;100470.84;;;9.01;100.00
18533;BME280;9396;51.510;11.934;2023-02-21T02:49:54;100470.28;;;9.07;100.00
18533;BME280;9396;51.510;11.934;2023-02-21T02:52:24;100463.28;;;9.06;100.00
18533;BME280;9396;51.510;11.934;2023-02-21T02:54:58;100463.88;;;9.00;100.00
18533;BME280;9396;51.510;11.934;2023-02-21T02:57:26;100461.91;;;9.02;100.00
18533;BME280;9396;51.510;11.934;2023-02-21T02:59:53;100471.53;;;9.03;100.00
18533;BME280;9396;51.510;11.934;2023-02-21T03:02:34;100469.44;;;9.07;100.00
18533;BME280;9396;51.510;11.934;2023-02-21T03:05:17;100444.31;;;9.01;100.00
18533;BME280;9396;51.510;11.934;2023-02-21T03:07:57;100461.78;;;9.04;100.00
18533;BME280;9396;51.510;11.934;2023-02-21T03:10:34;100449.06;;;9.07;100.00
18533;BME280;9396;51.510;11.934;2023-02-21T03:13:07;100452.81;;;9.05;100.00
18533;BME280;9396;51.510;11.934;2023-02-21T03:15:44;100446.97;;;9.01;100.00
18533;BME280;9396;51.510;11.934;2023-02-21T03:18:17;100449.91;;;9.08;100.00
18533;BME280;9396;51.510;11.934;2023-02-21T03:20:50;100456.63;;;9.02;100.00
18533;BME280;9396;51.510;11.934;2023-02-21T03:23:20;100455.91;;;9.00;100.00
18533;BME280;9396;51.510;11.934;2023-02-21T03:25:49;100456.72;;;9.01;100.00
18533;BME280;9396;51.510;11.934;2023-02-21T03:28:16;100454.06;;;9.01;100.00
18533;BME280;9396;51.510;11.934;2023-02-21T03:30:44;100445.16;;;9.02;100.00
18533;BME280;9396;51.510;11.934;2023-02-21T03:33:13;100443.47;;;9.01;100.00
18533;BME280;9396;51.510;11.934;2023-02-21T03:35:40;100443.47;;;9.01;100.00
18533;BME280;9396;51.510;11.934;2023-02-21T03:38:09;100450.47;;;9.02;100.00
18533;BME280;9396;51.510;11.934;2023-02-21T03:40:37;100445.16;;;9.02;100.00
18533;BME280;9396;51.510;11.934;2023-02-21T03:43:04;100448.09;;;8.99;100.00
18533;BME280;9396;51.510;11.934;2023-02-21T03:45:32;100428.84;;;8.97;100.00
18533;BME280;9396;51.510;11.934;2023-02-21T03:47:58;100437.75;;;8.96;100.00
18533;BME280;9396;51.510;11.934;2023-02-21T03:50:25;100435.94;;;8.96;100.00
18533;BME280;9396;51.510;11.934;2023-02-21T03:52:52;100431.19;;;8.90;100.00
18533;BME280;9396;51.510;11.934;2023-02-21T03:55:18;100356.22;;;8.32;100.00
18533;BME280;9396;51.510;11.934;2023-02-21T03:57:46;100431.34;;;8.89;100.00
18533;BME280;9396;51.510;11.934;2023-02-21T04:00:13;100445.59;;;8.78;100.00
18533;BME280;9396;51.510;11.934;2023-02-21T04:02:40;100445.47;;;8.80;100.00
18533;BME280;9396;51.510;11.934;2023-02-21T04:05:07;100449.34;;;8.85;100.00
18533;BME280;9396;51.510;11.934;2023-02-21T04:07:34;100457.63;;;8.82;100.00
18533;BME280;9396;51.510;11.934;2023-02-21T04:10:01;100444.34;;;8.82;100.00
18533;BME280;9396;51.510;11.934;2023-02-21T04:12:27;100448.94;;;8.80;100.00
18533;BME280;9396;51.510;11.934;2023-02-21T04:14:55;100428.19;;;8.76;100.00
18533;BME280;9396;51.510;11.934;2023-02-21T04:17:22;100441.41;;;8.85;100.00
18533;BME280;9396;51.510;11.934;2023-02-21T04:19:49;100424.94;;;8.82;100.00
18533;BME280;9396;51.510;11.934;2023-02-21T04:22:16;100438.34;;;8.80;100.00
18533;BME280;9396;51.510;11.934;2023-02-21T04:24:42;100298.59;;;7.96;100.00
18533;BME280;9396;51.510;11.934;2023-02-21T04:27:09;100443.22;;;8.85;100.00
18533;BME280;9396;51.510;11.934;2023-02-21T04:29:36;100431.09;;;8.82;100.00
18533;BME280;9396;51.510;11.934;2023-02-21T04:32:04;100434.03;;;8.79;100.00
18533;BME280;9396;51.510;11.934;2023-02-21T04:34:30;100428.72;;;8.79;100.00
18533;BME280;9396;51.510;11.934;2023-02-21T04:36:57;100429.53;;;8.89;100.00
18533;BME280;9396;51.510;11.934;2023-02-21T04:39:24;100435.41;;;8.83;100.00
18533;BME280;9396;51.510;11.934;2023-02-21T04:41:50;100429.28;;;8.83;100.00
18533;BME280;9396;51.510;11.934;2023-02-21T04:44:17;100430.66;;;8.87;100.00
18533;BME280;9396;51.510;11.934;2023-02-21T04:46:44;100427.28;;;8.85;100.00
18533;BME280;9396;51.510;11.934;2023-02-21T04:49:12;100435.94;;;8.87;100.00
18533;BME280;9396;51.510;11.934;2023-02-21T04:51:39;100432.03;;;8.91;100.00
18533;BME280;9396;51.510;11.934;2023-02-21T04:54:06;100428.00;;;8.87;100.00
18533;BME280;9396;51.510;11.934;2023-02-21T04:56:33;100415.72;;;8.86;100.00
18533;BME280;9396;51.510;11.934;2023-02-21T04:58:59;100414.47;;;8.80;100.00
18533;BME280;9396;51.510;11.934;2023-02-21T05:01:27;100417.13;;;8.90;100.00
18533;BME280;9396;51.510;11.934;2023-02-21T05:03:55;100416.13;;;8.91;100.00
18533;BME280;9396;51.510;11.934;2023-02-21T05:06:24;100409.88;;;8.92;100.00
18533;BME280;9396;51.510;11.934;2023-02-21T05:08:51;100423.13;;;8.92;100.00
18533;BME280;9396;51.510;11.934;2023-02-21T05:11:19;100417.94;;;8.90;100.00
18533;BME280;9396;51.510;11.934;2023-02-21T05:13:46;100416.97;;;8.91;100.00
18533;BME280;9396;51.510;11.934;2023-02-21T05:16:13;100428.28;;;8.93;100.00
18533;BME280;9396;51.510;11.934;2023-02-21T05:18:41;100419.47;;;8.93;100.00
18533;BME280;9396;51.510;11.934;2023-02-21T05:21:08;100421.84;;;8.96;100.00
18533;BME280;9396;51.510;11.934;2023-02-21T05:23:38;100439.44;;;8.97;100.00
18533;BME280;9396;51.510;11.934;2023-02-21T05:26:07;100350.06;;;8.41;100.00
18533;BME280;9396;51.510;11.934;2023-02-21T05:28:34;100439.44;;;8.97;100.00
18533;BME280;9396;51.510;11.934;2023-02-21T05:31:01;100449.91;;;8.98;100.00
18533;BME280;9396;51.510;11.934;2023-02-21T05:33:28;100444.47;;;9.00;100.00
18533;BME280;9396;51.510;11.934;2023-02-21T05:35:55;100434.00;;;8.98;100.00
18533;BME280;9396;51.510;11.934;2023-02-21T05:38:23;100450.47;;;9.02;100.00
18533;BME280;9396;51.510;11.934;2023-02-21T05:40:51;100446.25;;;8.99;100.00
18533;BME280;9396;51.510;11.934;2023-02-21T05:43:18;100458.97;;;8.96;100.00
18533;BME280;9396;51.510;11.934;2023-02-21T05:45:45;100452.97;;;8.94;100.00
18533;BME280;9396;51.510;11.934;2023-02-21T05:48:11;100454.38;;;8.98;100.00
18533;BME280;9396;51.510;11.934;2023-02-21T05:50:38;100450.63;;;8.91;100.00
18533;BME280;9396;51.510;11.934;2023-02-21T05:53:05;100454.66;;;8.95;100.00
18533;BME280;9396;51.510;11.934;2023-02-21T05:55:34;100459.28;;;8.93;100.00
18533;BME280;9396;51.510;11.934;2023-02-21T05:58:02;100456.31;;;8.96;100.00
18533;BME280;9396;51.510;11.934;2023-02-21T06:00:29;100468.63;;;8.97;100.00
18533;BME280;9396;51.510;11.934;2023-02-21T06:02:56;100469.03;;;8.92;100.00
18533;BME280;9396;51.510;11.934;2023-02-21T06:05:23;100480.34;;;8.94;100.00
18533;BME280;9396;51.510;11.934;2023-02-21T06:07:49;100477.00;;;9.02;100.00
18533;BME280;9396;51.510;11.934;2023-02-21T06:10:17;100483.41;;;8.99;100.00
18533;BME280;9396;51.510;11.934;2023-02-21T06:12:44;100485.78;;;9.02;100.00
18533;BME280;9396;51.510;11.934;2023-02-21T06:15:11;100494.31;;;9.06;100.00
18533;BME280;9396;51.510;11.934;2023-02-21T06:17:39;100500.56;;;9.05;100.00
18533;BME280;9396;51.510;11.934;2023-02-21T06:20:07;100491.78;;;9.04;100.00
18533;BME280;9396;51.510;11.934;2023-02-21T06:22:33;100503.63;;;9.10;100.00
18533;BME280;9396;51.510;11.934;2023-02-21T06:25:00;100403.06;;;8.60;100.00
18533;BME280;9396;51.510;11.934;2023-02-21T06:27:27;100493.47;;;9.15;100.00
18533;BME280;9396;51.510;11.934;2023-02-21T06:29:53;100504.63;;;9.18;100.00
18533;BME280;9396;51.510;11.934;2023-02-21T06:32:21;100504.06;;;9.15;100.00
18533;BME280;9396;51.510;11.934;2023-02-21T06:34:48;100508.38;;;9.16;100.00
18533;BME280;9396;51.510;11.934;2023-02-21T06:37:16;100508.25;;;9.17;100.00
18533;BME280;9396;51.510;11.934;2023-02-21T06:39:43;100510.63;;;9.11;100.00
18533;BME280;9396;51.510;11.934;2023-02-21T06:42:11;100419.66;;;8.53;100.00
18533;BME280;9396;51.510;11.934;2023-02-21T06:44:38;100511.75;;;9.18;100.00
18533;BME280;9396;51.510;11.934;2023-02-21T06:47:05;100526.25;;;9.14;100.00
18533;BME280;9396;51.510;11.934;2023-02-21T06:49:33;100527.97;;;9.15;100.00
18533;BME280;9396;51.510;11.934;2023-02-21T06:52:00;100533.13;;;9.16;100.00
18533;BME280;9396;51.510;11.934;2023-02-21T06:54:26;100526.13;;;9.15;100.00
18533;BME280;9396;51.510;11.934;2023-02-21T06:56:54;100525.84;;;9.18;100.00
18533;BME280;9396;51.510;11.934;2023-02-21T06:59:20;100530.31;;;9.18;100.00
18533;BME280;9396;51.510;11.934;2023-02-21T07:01:47;100530.16;;;9.19;100.00
18533;BME280;9396;51.510;11.934;2023-02-21T07:04:14;100535.47;;;9.19;100.00
18533;BME280;9396;51.510;11.934;2023-02-21T07:06:42;100534.94;;;9.16;100.00
18533;BME280;9396;51.510;11.934;2023-02-21T07:09:08;100544.53;;;9.17;100.00
18533;BME280;9396;51.510;11.934;2023-02-21T07:11:35;100543.28;;;9.21;100.00
18533;BME280;9396;51.510;11.934;2023-02-21T07:14:02;100537.03;;;9.22;100.00
18533;BME280;9396;51.510;11.934;2023-02-21T07:16:29;100541.50;;;9.21;100.00
18533;BME280;9396;51.510;11.934;2023-02-21T07:18:56;100540.34;;;9.24;100.00
18533;BME280;9396;51.510;11.934;2023-02-21T07:21:24;100542.75;;;9.27;100.00
18533;BME280;9396;51.510;11.934;2023-02-21T07:23:52;100539.09;;;9.28;100.00
18533;BME280;9396;51.510;11.934;2023-02-21T07:26:19;100538.38;;;9.26;100.00
18533;BME280;9396;51.510;11.934;2023-02-21T07:28:46;100529.63;;;9.25;100.00
18533;BME280;9396;51.510;11.934;2023-02-21T07:31:13;100537.84;;;9.32;100.00
18533;BME280;9396;51.510;11.934;2023-02-21T07:33:41;100531.78;;;9.49;100.00
18533;BME280;9396;51.510;11.934;2023-02-21T07:36:08;100539.75;;;9.49;100.00
18533;BME280;9396;51.510;11.934;2023-02-21T07:38:34;100531.22;;;9.55;100.00
18533;BME280;9396;51.510;11.934;2023-02-21T07:41:03;100534.28;;;9.60;100.00
18533;BME280;9396;51.510;11.934;2023-02-21T07:43:30;100543.63;;;9.64;100.00
18533;BME280;9396;51.510;11.934;2023-02-21T07:45:57;100543.63;;;9.64;100.00
18533;BME280;9396;51.510;11.934;2023-02-21T07:48:24;100551.44;;;9.65;100.00
18533;BME280;9396;51.510;11.934;2023-02-21T07:50:51;100547.25;;;9.63;100.00
18533;BME280;9396;51.510;11.934;2023-02-21T07:53:17;100545.16;;;9.66;100.00
18533;BME280;9396;51.510;11.934;2023-02-21T07:55:44;100556.63;;;9.67;100.00
18533;BME280;9396;51.510;11.934;2023-02-21T07:58:12;100551.91;;;9.61;100.00
18533;BME280;9396;51.510;11.934;2023-02-21T08:00:38;100553.69;;;9.70;100.00
18533;BME280;9396;51.510;11.934;2023-02-21T08:03:05;100557.00;;;9.72;100.00
18533;BME280;9396;51.510;11.934;2023-02-21T08:05:31;100551.97;;;9.79;100.00
18533;BME280;9396;51.510;11.934;2023-02-21T08:07:58;100564.66;;;9.85;100.00
18533;BME280;9396;51.510;11.934;2023-02-21T08:10:26;100563.16;;;9.82;100.00
18533;BME280;9396;51.510;11.934;2023-02-21T08:12:53;100576.13;;;9.85;100.00
18533;BME280;9396;51.510;11.934;2023-02-21T08:15:21;100573.31;;;9.87;100.00
18533;BME280;9396;51.510;11.934;2023-02-21T08:17:48;100580.34;;;9.88;100.00
18533;BME280;9396;51.510;11.934;2023-02-21T08:20:15;100586.75;;;9.85;100.00
18533;BME280;9396;51.510;11.934;2023-02-21T08:22:42;100586.91;;;9.84;100.00
18533;BME280;9396;51.510;11.934;2023-02-21T08:25:09;100447.09;;;9.00;100.00
18533;BME280;9396;51.510;11.934;2023-02-21T08:27:37;100595.59;;;9.86;100.00
18533;BME280;9396;51.510;11.934;2023-02-21T08:30:05;100597.00;;;9.80;100.00
18533;BME280;9396;51.510;11.934;2023-02-21T08:32:34;100595.59;;;9.86;100.00
18533;BME280;9396;51.510;11.934;2023-02-21T08:35:01;100593.75;;;9.86;100.00
18533;BME280;9396;51.510;11.934;2023-02-21T08:37:30;100596.69;;;9.83;100.00
18533;BME280;9396;51.510;11.934;2023-02-21T08:40:01;100595.59;;;9.86;100.00
18533;BME280;9396;51.510;11.934;2023-02-21T08:42:29;100597.09;;;9.88;100.00
18533;BME280;9396;51.510;11.934;2023-02-21T08:44:55;100599.75;;;9.88;100.00
18533;BME280;9396;51.510;11.934;2023-02-21T08:47:22;100594.97;;;9.92;100.00
18533;BME280;9396;51.510;11.934;2023-02-21T08:49:50;100589.81;;;9.90;100.00
18533;BME280;9396;51.510;11.934;2023-02-21T08:52:18;100593.56;;;9.97;100.00
18533;BME280;9396;51.510;11.934;2023-02-21T08:54:45;100589.78;;;10.00;100.00
18533;BME280;9396;51.510;11.934;2023-02-21T08:57:12;100603.91;;;10.10;100.00
18533;BME280;9396;51.510;11.934;2023-02-21T08:59:39;100602.66;;;10.14;100.00
18533;BME280;9396;51.510;11.934;2023-02-21T09:02:14;100586.84;;;10.12;100.00
18533;BME280;9396;51.510;11.934;2023-02-21T09:04:41;100592.31;;;10.11;100.00
18533;BME280;9396;51.510;11.934;2023-02-21T09:07:10;100590.44;;;10.21;100.00
18533;BME280;9396;51.510;11.934;2023-02-21T09:09:37;100591.81;;;10.25;100.00
18533;BME280;9396;51.510;11.934;2023-02-21T09:12:05;100591.97;;;10.23;100.00
18533;BME280;9396;51.510;11.934;2023-02-21T09:14:32;100593.22;;;10.29;100.00
18533;BME280;9396;51.510;11.934;2023-02-21T09:16:59;100580.47;;;10.32;100.00
18533;BME280;9396;51.510;11.934;2023-02-21T09:19:26;100590.56;;;10.29;100.00
18533;BME280;9396;51.510;11.934;2023-02-21T09:21:52;100589.56;;;10.30;100.00
18533;BME280;9396;51.510;11.934;2023-02-21T09:24:22;100586.75;;;10.31;100.00
18533;BME280;9396;51.510;11.934;2023-02-21T09:26:50;100586.91;;;10.30;100.00
18533;BME280;9396;51.510;11.934;2023-02-21T09:29:18;100588.69;;;10.39;100.00
18533;BME280;9396;51.510;11.934;2023-02-21T09:31:45;100589.53;;;10.39;100.00
18533;BME280;9396;51.510;11.934;2023-02-21T09:34:12;100585.56;;;10.43;100.00
18533;BME280;9396;51.510;11.934;2023-02-21T09:36:38;100579.66;;;10.49;100.00
18533;BME280;9396;51.510;11.934;2023-02-21T09:39:05;100594.63;;;10.50;100.00
18533;BME280;9396;51.510;11.934;2023-02-21T09:41:34;100594.34;;;10.53;100.00
18533;BME280;9396;51.510;11.934;2023-02-21T09:44:02;100598.28;;;10.49;100.00
18533;BME280;9396;51.510;11.934;2023-02-21T09:46:33;100590.28;;;10.49;100.00
18533;BME280;9396;51.510;11.934;2023-02-21T09:49:04;100595.31;;;10.52;100.00
18533;BME280;9396;51.510;11.934;2023-02-21T09:51:33;100597.53;;;10.57;100.00
18533;BME280;9396;51.510;11.934;2023-02-21T09:54:12;100598.63;;;10.64;100.00
18533;BME280;9396;51.510;11.934;2023-02-21T09:56:43;100585.53;;;10.70;100.00
18533;BME280;9396;51.510;11.934;2023-02-21T09:59:11;100548.06;;;10.46;100.00
18533;BME280;9396;51.510;11.934;2023-02-21T10:01:48;100604.69;;;10.74;100.00
18533;BME280;9396;51.510;11.934;2023-02-21T10:04:21;100604.84;;;10.72;100.00
18533;BME280;9396;51.510;11.934;2023-02-21T10:06:54;100593.75;;;10.77;100.00
18533;BME280;9396;51.510;11.934;2023-02-21T10:09:29;100605.47;;;10.84;100.00
18533;BME280;9396;51.510;11.934;2023-02-21T10:12:09;100607.09;;;10.95;100.00
18533;BME280;9396;51.510;11.934;2023-02-21T10:14:52;100614.75;;;10.80;100.00
18533;BME280;9396;51.510;11.934;2023-02-21T10:17:28;100610.41;;;10.79;100.00
18533;BME280;9396;51.510;11.934;2023-02-21T10:20:02;100615.88;;;10.77;100.00
18533;BME280;9396;51.510;11.934;2023-02-21T10:22:32;100614.06;;;10.78;100.00
18533;BME280;9396;51.510;11.934;2023-02-21T10:25:00;100562.63;;;10.42;100.00
18533;BME280;9396;51.510;11.934;2023-02-21T10:27:35;100625.69;;;10.77;100.00
18533;BME280;9396;51.510;11.934;2023-02-21T10:30:05;100630.56;;;10.82;100.00
18533;BME280;9396;51.510;11.934;2023-02-21T10:32:35;100635.44;;;10.86;100.00
18533;BME280;9396;51.510;11.934;2023-02-21T10:35:03;100632.34;;;10.91;100.00
18533;BME280;9396;51.510;11.934;2023-02-21T10:37:36;100624.88;;;10.94;100.00
18533;BME280;9396;51.510;11.934;2023-02-21T10:40:21;100628.09;;;10.98;100.00
18533;BME280;9396;51.510;11.934;2023-02-21T10:42:54;100628.47;;;11.03;100.00
18533;BME280;9396;51.510;11.934;2023-02-21T10:45:31;100629.47;;;11.02;100.00
18533;BME280;9396;51.510;11.934;2023-02-21T10:48:00;100638.09;;;11.04;100.00
18533;BME280;9396;51.510;11.934;2023-02-21T10:50:36;100635.53;;;10.94;100.00
18533;BME280;9396;51.510;11.934;2023-02-21T10:53:03;100638.63;;;10.90;100.00
18533;BME280;9396;51.510;11.934;2023-02-21T10:55:31;100646.38;;;10.83;100.00
18533;BME280;9396;51.510;11.934;2023-02-21T10:58:08;100636.19;;;10.78;100.00
18533;BME280;9396;51.510;11.934;2023-02-21T11:00:37;100645.16;;;10.77;100.00
18533;BME280;9396;51.510;11.934;2023-02-21T11:03:06;100649.78;;;10.75;100.00
18533;BME280;9396;51.510;11.934;2023-02-21T11:05:38;100639.69;;;10.79;100.00
18533;BME280;9396;51.510;11.934;2023-02-21T11:08:06;100639.41;;;10.82;100.00
18533;BME280;9396;51.510;11.934;2023-02-21T11:10:35;100635.88;;;10.82;100.00
18533;BME280;9396;51.510;11.934;2023-02-21T11:13:13;100627.06;;;10.81;100.00
18533;BME280;9396;51.510;11.934;2023-02-21T11:15:40;100625.63;;;10.87;100.00
18533;BME280;9396;51.510;11.934;2023-02-21T11:18:14;100616.91;;;10.94;100.00
18533;BME280;9396;51.510;11.934;2023-02-21T11:20:41;100614.41;;;11.10;100.00
18533;BME280;9396;51.510;11.934;2023-02-21T11:23:22;100609.66;;;11.22;100.00
18533;BME280;9396;51.510;11.934;2023-02-21T11:26:04;100607.78;;;11.32;99.89
18533;BME280;9396;51.510;11.934;2023-02-21T11:28:36;100606.84;;;11.41;100.00
18533;BME280;9396;51.510;11.934;2023-02-21T11:31:14;100596.03;;;11.42;99.77
18533;BME280;9396;51.510;11.934;2023-02-21T11:33:49;100607.00;;;11.39;99.26
18533;BME280;9396;51.510;11.934;2023-02-21T11:36:17;100597.19;;;11.40;99.65
18533;BME280;9396;51.510;11.934;2023-02-21T11:38:59;100598.22;;;11.47;100.00
18533;BME280;9396;51.510;11.934;2023-02-21T11:41:29;100588.63;;;11.54;99.89
18533;BME280;9396;51.510;11.934;2023-02-21T11:43:57;100595.16;;;11.59;99.49
18533;BME280;9396;51.510;11.934;2023-02-21T11:46:33;100584.06;;;11.64;99.16
18533;BME280;9396;51.510;11.934;2023-02-21T11:49:05;100580.25;;;11.66;99.92
18533;BME280;9396;51.510;11.934;2023-02-21T11:51:40;100586.72;;;11.64;99.20
18533;BME280;9396;51.510;11.934;2023-02-21T11:54:08;100575.09;;;11.65;98.59
18533;BME280;9396;51.510;11.934;2023-02-21T11:56:51;100582.25;;;11.64;98.71
18533;BME280;9396;51.510;11.934;2023-02-21T11:59:38;100582.06;;;11.66;98.27
18533;BME280;9396;51.510;11.934;2023-02-21T12:02:38;100583.44;;;11.70;99.56
18533;BME280;9396;51.510;11.934;2023-02-21T12:05:22;100566.00;;;11.75;98.58
18533;BME280;9396;51.510;11.934;2023-02-21T12:08:03;100580.38;;;11.82;98.37
18533;BME280;9396;51.510;11.934;2023-02-21T12:10:43;100572.69;;;11.79;97.54
18533;BME280;9396;51.510;11.934;2023-02-21T12:13:20;100576.81;;;11.74;98.41
18533;BME280;9396;51.510;11.934;2023-02-21T12:15:56;100567.97;;;11.73;97.69
18533;BME280;9396;51.510;11.934;2023-02-21T12:18:42;100568.06;;;11.64;98.11
18533;BME280;9396;51.510;11.934;2023-02-21T12:21:40;100565.53;;;11.62;98.57
18533;BME280;9396;51.510;11.934;2023-02-21T12:24:23;100565.00;;;11.59;98.51
18533;BME280;9396;51.510;11.934;2023-02-21T12:26:59;100553.84;;;11.55;98.40
18533;BME280;9396;51.510;11.934;2023-02-21T12:29:41;100562.00;;;11.54;98.67
18533;BME280;9396;51.510;11.934;2023-02-21T12:32:29;100557.69;;;11.61;99.30
18533;BME280;9396;51.510;11.934;2023-02-21T12:35:14;100555.03;;;11.61;99.24
18533;BME280;9396;51.510;11.934;2023-02-21T12:37:52;100550.09;;;11.66;98.79
18533;BME280;9396;51.510;11.934;2023-02-21T12:40:37;100556.13;;;11.68;98.52
18533;BME280;9396;51.510;11.934;2023-02-21T12:43:22;100551.31;;;11.71;97.05
18533;BME280;9396;51.510;11.934;2023-02-21T12:45:57;100545.34;;;11.77;95.70
18533;BME280;9396;51.510;11.934;2023-02-21T12:48:33;100545.56;;;11.84;95.58
18533;BME280;9396;51.510;11.934;2023-02-21T12:51:06;100540.06;;;11.85;95.41
18533;BME280;9396;51.510;11.934;2023-02-21T12:53:39;100543.91;;;11.91;96.12
18533;BME280;9396;51.510;11.934;2023-02-21T12:56:11;100540.28;;;11.92;96.07
18533;BME280;9396;51.510;11.934;2023-02-21T12:58:43;100551.25;;;11.89;95.25
18533;BME280;9396;51.510;11.934;2023-02-21T13:01:15;100538.59;;;11.91;95.14
18533;BME280;9396;51.510;11.934;2023-02-21T13:04:10;100541.66;;;11.96;94.58
18533;BME280;9396;51.510;11.934;2023-02-21T13:06:44;100540.13;;;12.02;94.48
18533;BME280;9396;51.510;11.934;2023-02-21T13:09:20;100533.84;;;12.11;94.22
18533;BME280;9396;51.510;11.934;2023-02-21T13:11:56;100539.91;;;12.21;93.72
18533;BME280;9396;51.510;11.934;2023-02-21T13:14:28;100539.75;;;12.30;92.11
18533;BME280;9396;51.510;11.934;2023-02-21T13:16:57;100535.63;;;12.36;92.85
18533;BME280;9396;51.510;11.934;2023-02-21T13:19:31;100532.66;;;12.39;92.76
18533;BME280;9396;51.510;11.934;2023-02-21T13:25:19;100537.13;;;12.38;94.76